Time;durP1;ratioP1;P1;durP2;ratioP2;P2;SDS_P1;SDS_P2;PMS_P1;PMS_P2;Temp;Humidity;BMP_temperature;BMP_pressure;BME280_temperature;BME280_humidity;BME280_pressure;Samples;Min_cycle;Max_cycle;Signal;HPM_P1;HPM_P2
2022/04/29 00:00:48;;;;;;;0.90;0.77;;;9.80;99.90;;;;;;5024565;28;20136;-61
2022/04/29 00:03:15;;;;;;;2.55;1.00;;;9.80;99.90;;;;;;5024118;28;20160;-60
2022/04/29 00:05:42;;;;;;;1.30;0.95;;;9.80;99.90;;;;;;5022578;28;20145;-61
2022/04/29 00:08:10;;;;;;;1.15;0.82;;;9.80;99.90;;;;;;5024185;28;20061;-60
2022/04/29 00:10:37;;;;;;;1.17;0.90;;;9.80;99.90;;;;;;5022794;28;20429;-60
2022/04/29 00:13:05;;;;;;;1.00;0.90;;;9.80;99.90;;;;;;5016466;28;20093;-60
2022/04/29 00:15:32;;;;;;;1.80;0.90;;;9.80;99.90;;;;;;5024317;28;20081;-60
2022/04/29 00:17:58;;;;;;;1.17;1.00;;;9.80;99.90;;;;;;5023894;28;20060;-60
2022/04/29 00:20:25;;;;;;;1.40;1.10;;;9.80;99.90;;;;;;5016011;28;20817;-60
2022/04/29 00:22:52;;;;;;;1.33;0.90;;;9.80;99.90;;;;;;5004416;28;20093;-60
2022/04/29 00:25:19;;;;;;;2.45;1.10;;;9.70;99.90;;;;;;5022834;28;20076;-60
2022/04/29 00:27:45;;;;;;;2.58;1.00;;;9.80;99.90;;;;;;5024255;28;20049;-60
2022/04/29 00:30:12;;;;;;;1.80;1.10;;;9.80;99.90;;;;;;5024141;28;20080;-60
2022/04/29 00:32:39;;;;;;;1.80;0.90;;;9.70;99.90;;;;;;5022634;28;20060;-60
2022/04/29 00:35:08;;;;;;;1.40;1.05;;;9.70;99.90;;;;;;5023569;28;20041;-58
2022/04/29 00:37:49;;;;;;;1.60;1.10;;;9.70;99.90;;;;;;5022535;28;20088;-58
2022/04/29 00:40:19;;;;;;;2.97;1.70;;;9.70;99.90;;;;;;5023948;28;20049;-58
2022/04/29 00:42:45;;;;;;;1.52;1.00;;;9.60;99.90;;;;;;5024044;28;20271;-58
2022/04/29 00:45:13;;;;;;;1.35;1.00;;;9.60;99.90;;;;;;5023224;28;20132;-58
2022/04/29 00:47:40;;;;;;;1.80;1.10;;;9.50;99.90;;;;;;5023485;28;20131;-58
2022/04/29 00:50:08;;;;;;;1.60;1.15;;;9.50;99.90;;;;;;5023479;28;20143;-58
2022/04/29 00:52:36;;;;;;;1.48;1.00;;;9.50;99.90;;;;;;5023793;28;20125;-58
2022/04/29 00:55:06;;;;;;;1.55;1.15;;;9.40;99.90;;;;;;5022609;28;20525;-59
2022/04/29 00:57:41;;;;;;;1.92;1.27;;;9.40;99.90;;;;;;5022915;28;20053;-56
2022/04/29 01:00:09;;;;;;;2.08;1.23;;;9.30;99.90;;;;;;5023929;28;20207;-58
2022/04/29 01:02:41;;;;;;;1.55;0.90;;;9.30;99.90;;;;;;5023439;28;20120;-59
2022/04/29 01:05:13;;;;;;;1.80;1.10;;;9.30;99.90;;;;;;5023536;28;20084;-58
2022/04/29 01:07:41;;;;;;;2.83;1.58;;;9.20;99.90;;;;;;5023654;28;20108;-58
2022/04/29 01:10:10;;;;;;;2.25;1.35;;;9.20;99.90;;;;;;5023955;28;20128;-58
2022/04/29 01:12:38;;;;;;;1.20;0.80;;;9.20;99.90;;;;;;5019531;28;20451;-58
2022/04/29 01:15:17;;;;;;;1.50;1.10;;;9.10;99.90;;;;;;5019105;28;20607;-58
2022/04/29 01:17:45;;;;;;;1.63;0.90;;;9.10;99.90;;;;;;5023180;28;20158;-58
2022/04/29 01:20:15;;;;;;;1.88;1.00;;;9.10;99.90;;;;;;5022349;28;20077;-58
2022/04/29 01:22:42;;;;;;;2.28;0.90;;;9.10;99.90;;;;;;5023278;28;20200;-58
2022/04/29 01:25:09;;;;;;;1.80;1.02;;;9.00;99.90;;;;;;5022521;28;20414;-58
2022/04/29 01:27:36;;;;;;;2.55;1.15;;;9.00;99.90;;;;;;5022502;28;20228;-58
2022/04/29 01:30:04;;;;;;;1.40;0.93;;;9.00;99.90;;;;;;5021358;28;20049;-58
2022/04/29 01:32:32;;;;;;;1.48;0.95;;;8.90;99.90;;;;;;5021053;28;20053;-59
2022/04/29 01:34:59;;;;;;;2.55;1.50;;;8.90;99.90;;;;;;5023302;28;20089;-59
2022/04/29 01:37:26;;;;;;;1.83;1.02;;;8.90;99.90;;;;;;5024780;28;20091;-59
2022/04/29 01:39:53;;;;;;;1.40;1.05;;;8.90;99.90;;;;;;5024721;28;20171;-59
2022/04/29 01:42:20;;;;;;;1.48;1.20;;;8.90;99.90;;;;;;5022682;28;20552;-59
2022/04/29 01:44:52;;;;;;;1.17;0.80;;;8.80;99.90;;;;;;5024118;28;20053;-59
2022/04/29 01:47:19;;;;;;;2.35;1.30;;;8.80;99.90;;;;;;5023916;28;22795;-59
2022/04/29 01:49:45;;;;;;;2.03;0.82;;;8.70;99.90;;;;;;5024537;28;20136;-58
2022/04/29 01:52:12;;;;;;;1.17;1.02;;;8.70;99.90;;;;;;5024605;28;20499;-58
2022/04/29 01:54:39;;;;;;;1.10;0.90;;;8.70;99.90;;;;;;5024537;28;20137;-58
2022/04/29 01:57:06;;;;;;;1.98;1.00;;;8.70;99.90;;;;;;5024299;28;20056;-58
2022/04/29 01:59:33;;;;;;;2.17;1.10;;;8.60;99.90;;;;;;5024261;28;20132;-59
2022/04/29 02:02:00;;;;;;;1.42;1.02;;;8.60;99.90;;;;;;5022383;28;20124;-59
2022/04/29 02:04:27;;;;;;;1.42;0.77;;;8.60;99.90;;;;;;5024551;28;20057;-59
2022/04/29 02:06:54;;;;;;;1.35;1.00;;;8.50;99.90;;;;;;5023914;28;20095;-59
2022/04/29 02:09:20;;;;;;;1.17;1.00;;;8.50;99.90;;;;;;5023852;28;20068;-58
2022/04/29 02:12:06;;;;;;;1.23;0.98;;;8.50;99.90;;;;;;5023522;28;20144;-59
2022/04/29 02:14:37;;;;;;;2.60;1.20;;;8.40;99.90;;;;;;5024143;28;20049;-59
2022/04/29 02:17:05;;;;;;;1.30;0.98;;;8.30;99.90;;;;;;5023812;28;20152;-59
2022/04/29 02:19:33;;;;;;;2.45;1.10;;;8.30;99.90;;;;;;5024324;28;20085;-59
2022/04/29 02:22:00;;;;;;;1.50;1.05;;;8.20;99.90;;;;;;5022616;28;20057;-59
2022/04/29 02:24:27;;;;;;;1.10;0.88;;;8.20;99.90;;;;;;5023926;28;20158;-59
2022/04/29 02:26:54;;;;;;;1.40;1.05;;;8.20;99.90;;;;;;5024592;28;20496;-59
2022/04/29 02:29:21;;;;;;;0.93;0.77;;;8.10;99.90;;;;;;5024265;28;20054;-59
2022/04/29 02:31:49;;;;;;;2.60;1.08;;;8.10;99.90;;;;;;5022736;28;20084;-59
2022/04/29 02:34:16;;;;;;;1.40;0.90;;;8.00;99.90;;;;;;5023729;28;20103;-59
2022/04/29 02:36:42;;;;;;;2.05;1.10;;;8.00;99.90;;;;;;5023620;28;20056;-59
2022/04/29 02:39:09;;;;;;;1.23;1.00;;;8.00;99.90;;;;;;5023556;28;20117;-59
2022/04/29 02:41:38;;;;;;;1.70;0.98;;;7.90;99.90;;;;;;5022605;28;20136;-59
2022/04/29 02:44:05;;;;;;;2.97;0.98;;;7.90;99.90;;;;;;5022534;28;20096;-59
2022/04/29 02:46:33;;;;;;;1.65;1.10;;;7.90;99.90;;;;;;5003664;28;20133;-59
2022/04/29 02:48:59;;;;;;;1.58;1.20;;;7.80;99.90;;;;;;5003696;28;20408;-59
2022/04/29 02:51:26;;;;;;;2.33;0.90;;;7.80;99.90;;;;;;5020330;28;20156;-58
2022/04/29 02:53:53;;;;;;;1.35;0.93;;;7.70;99.90;;;;;;5023556;28;20160;-59
2022/04/29 02:56:20;;;;;;;1.92;1.20;;;7.70;99.90;;;;;;5023771;28;20098;-59
2022/04/29 02:58:46;;;;;;;3.78;1.17;;;7.60;99.90;;;;;;5022856;28;20109;-59
2022/04/29 03:01:13;;;;;;;2.30;1.15;;;7.60;99.90;;;;;;5023178;28;20152;-59
2022/04/29 03:03:40;;;;;;;1.05;0.90;;;7.50;99.90;;;;;;5023094;28;20056;-59
2022/04/29 03:06:07;;;;;;;1.15;0.98;;;7.50;99.90;;;;;;5023497;28;20056;-59
2022/04/29 03:08:34;;;;;;;1.40;0.90;;;7.40;99.90;;;;;;5023469;28;20071;-59
2022/04/29 03:11:01;;;;;;;1.65;1.13;;;7.40;99.90;;;;;;5023627;28;20060;-59
2022/04/29 03:13:28;;;;;;;1.35;1.05;;;7.30;99.90;;;;;;5023963;28;20128;-59
2022/04/29 03:15:54;;;;;;;1.50;1.05;;;7.30;99.90;;;;;;5021820;28;20491;-59
2022/04/29 03:18:22;;;;;;;1.63;1.00;;;7.20;99.90;;;;;;5023492;28;20053;-59
2022/04/29 03:20:51;;;;;;;1.33;0.88;;;7.20;99.90;;;;;;5022967;28;20049;-59
2022/04/29 03:23:18;;;;;;;1.15;0.93;;;7.20;99.90;;;;;;5023209;28;20049;-59
2022/04/29 03:25:45;;;;;;;3.30;1.33;;;7.20;99.90;;;;;;5022385;28;20358;-57
2022/04/29 03:28:11;;;;;;;1.50;1.13;;;7.10;99.90;;;;;;5027557;28;20532;-59
2022/04/29 03:30:38;;;;;;;2.17;1.13;;;7.10;99.90;;;;;;5025392;28;20175;-59
2022/04/29 03:33:05;;;;;;;1.67;1.00;;;7.00;99.90;;;;;;5027196;28;20045;-59
2022/04/29 03:35:37;;;;;;;1.50;1.10;;;7.00;99.90;;;;;;5026996;28;20100;-59
2022/04/29 03:38:04;;;;;;;1.30;1.00;;;7.00;99.90;;;;;;5025527;28;20081;-59
2022/04/29 03:40:30;;;;;;;1.80;0.98;;;7.00;99.90;;;;;;5027402;28;20140;-59
2022/04/29 03:42:57;;;;;;;2.20;1.30;;;7.00;99.90;;;;;;5027370;28;20041;-59
2022/04/29 03:45:25;;;;;;;2.70;1.92;;;7.00;99.90;;;;;;5026913;28;20513;-59
2022/04/29 03:47:53;;;;;;;2.55;1.45;;;6.90;99.90;;;;;;5026391;28;20132;-61
2022/04/29 03:50:23;;;;;;;1.20;1.10;;;6.90;99.90;;;;;;5026588;28;20128;-59
2022/04/29 03:52:51;;;;;;;2.15;1.20;;;6.90;99.90;;;;;;5026829;28;20081;-60
2022/04/29 03:55:19;;;;;;;1.50;1.25;;;6.90;99.90;;;;;;5027201;28;20100;-58
2022/04/29 03:57:46;;;;;;;2.58;1.50;;;6.80;99.90;;;;;;5026989;28;20570;-59
2022/04/29 04:00:13;;;;;;;2.03;1.30;;;6.80;99.90;;;;;;5027571;28;20212;-59
2022/04/29 04:02:40;;;;;;;2.17;1.30;;;6.80;99.90;;;;;;5028112;28;20378;-59
2022/04/29 04:05:08;;;;;;;1.40;1.10;;;6.80;99.90;;;;;;5028236;28;20053;-59
2022/04/29 04:07:35;;;;;;;2.08;1.05;;;6.80;99.90;;;;;;5028458;28;20053;-59
2022/04/29 04:10:06;;;;;;;2.22;1.20;;;6.80;99.90;;;;;;5028284;28;20081;-59
2022/04/29 04:12:43;;;;;;;1.45;1.30;;;6.90;99.90;;;;;;5027353;28;20077;-59
2022/04/29 04:15:11;;;;;;;1.40;1.20;;;6.90;99.90;;;;;;5028145;28;20435;-59
2022/04/29 04:17:37;;;;;;;1.63;1.30;;;6.80;99.90;;;;;;5026624;28;20465;-61
2022/04/29 04:20:05;;;;;;;2.00;1.45;;;6.80;99.90;;;;;;5028116;28;20085;-58
2022/04/29 04:22:35;;;;;;;2.25;1.45;;;6.80;99.90;;;;;;5028217;28;20175;-59
2022/04/29 04:25:03;;;;;;;1.70;1.40;;;6.70;99.90;;;;;;5028100;28;20091;-59
2022/04/29 04:27:31;;;;;;;1.60;1.30;;;6.70;99.90;;;;;;5028777;28;20057;-59
2022/04/29 04:29:58;;;;;;;1.30;1.20;;;6.70;99.90;;;;;;5028238;28;20461;-59
2022/04/29 04:32:26;;;;;;;1.58;1.25;;;6.70;99.90;;;;;;5026860;28;20160;-59
2022/04/29 04:34:57;;;;;;;1.85;1.20;;;6.70;99.90;;;;;;5028396;28;20083;-59
2022/04/29 04:37:24;;;;;;;3.38;1.50;;;6.60;99.90;;;;;;5027626;28;20124;-58
2022/04/29 04:39:52;;;;;;;1.77;1.30;;;6.60;99.90;;;;;;5018599;28;20085;-59
2022/04/29 04:42:19;;;;;;;2.53;1.92;;;6.60;99.90;;;;;;5008806;28;20081;-60
2022/04/29 04:44:47;;;;;;;1.40;1.30;;;6.60;99.90;;;;;;5027997;28;20149;-59
2022/04/29 04:47:14;;;;;;;1.67;1.38;;;6.60;99.90;;;;;;5025132;28;20559;-59
2022/04/29 04:49:40;;;;;;;2.22;1.40;;;6.50;99.90;;;;;;5002331;28;20161;-58
2022/04/29 04:52:08;;;;;;;2.20;1.67;;;6.50;99.90;;;;;;5016169;28;20060;-59
2022/04/29 04:54:35;;;;;;;2.20;1.50;;;6.50;99.90;;;;;;5020725;28;20414;-59
2022/04/29 05:01:56;;;;;;;2.47;1.40;;;6.50;99.90;;;;;;5037011;28;20468;-60
2022/04/29 05:04:23;;;;;;;2.10;1.58;;;6.50;99.90;;;;;;5023566;28;20087;-58
2022/04/29 05:06:51;;;;;;;1.52;1.30;;;6.60;99.90;;;;;;5041067;28;20514;-59
2022/04/29 05:09:18;;;;;;;2.40;1.40;;;6.60;99.90;;;;;;5041444;28;21070;-60
2022/04/29 05:11:44;;;;;;;1.77;1.20;;;6.60;99.90;;;;;;5040806;28;20051;-60
2022/04/29 05:14:31;;;;;;;2.10;1.65;;;6.70;99.90;;;;;;5041115;28;20052;-60
2022/04/29 05:16:58;;;;;;;1.80;1.30;;;6.70;99.90;;;;;;5035068;28;20551;-60
2022/04/29 05:19:25;;;;;;;1.30;1.15;;;6.70;99.90;;;;;;5030616;28;20049;-60
2022/04/29 05:21:51;;;;;;;2.35;1.48;;;6.80;99.90;;;;;;5030606;28;20551;-60
2022/04/29 05:24:18;;;;;;;2.42;1.70;;;6.80;99.90;;;;;;5018411;28;20137;-60
2022/04/29 05:26:52;;;;;;;3.22;1.70;;;6.90;99.90;;;;;;5018500;28;20321;-60
2022/04/29 05:29:19;;;;;;;1.58;1.33;;;7.00;99.90;;;;;;5031398;28;20180;-60
2022/04/29 05:31:46;;;;;;;2.53;1.70;;;7.10;99.90;;;;;;5027644;28;20049;-60
2022/04/29 05:34:12;;;;;;;1.90;1.58;;;7.10;99.90;;;;;;5037070;28;20052;-60
2022/04/29 05:36:39;;;;;;;2.20;1.65;;;7.20;99.90;;;;;;5039413;28;20055;-60
2022/04/29 05:44:37;;;;;;;2.78;1.63;;;7.20;99.90;;;;;;5023870;28;20493;-60
2022/04/29 05:47:04;;;;;;;3.17;1.30;;;7.20;99.90;;;;;;5035543;28;20554;-60
2022/04/29 05:49:30;;;;;;;2.25;1.75;;;7.30;99.90;;;;;;5034090;28;20155;-60
2022/04/29 05:52:01;;;;;;;1.80;1.50;;;7.30;99.90;;;;;;5039840;28;20533;-59
2022/04/29 05:54:28;;;;;;;1.83;1.45;;;7.30;99.90;;;;;;5022235;28;20251;-60
2022/04/29 05:56:54;;;;;;;2.10;1.25;;;7.30;99.90;;;;;;5040732;28;20076;-60
2022/04/29 05:59:21;;;;;;;2.03;1.50;;;7.30;99.90;;;;;;5037500;28;20480;-60
2022/04/29 06:01:48;;;;;;;1.80;1.42;;;7.30;99.90;;;;;;5028281;28;20049;-60
2022/04/29 06:04:15;;;;;;;2.70;1.63;;;7.30;99.90;;;;;;5037662;28;20132;-60
2022/04/29 06:06:42;;;;;;;2.40;1.23;;;7.20;99.90;;;;;;5036137;28;20446;-60
2022/04/29 06:09:09;;;;;;;1.60;1.25;;;7.20;99.90;;;;;;5039056;28;20051;-60
2022/04/29 06:11:35;;;;;;;1.65;1.17;;;7.20;99.90;;;;;;5040251;28;20131;-59
2022/04/29 06:14:02;;;;;;;1.85;1.25;;;7.30;99.90;;;;;;5039123;28;20453;-61
2022/04/29 06:16:29;;;;;;;1.70;1.10;;;7.30;99.90;;;;;;5039704;28;20423;-60
2022/04/29 06:18:56;;;;;;;1.50;1.20;;;7.20;99.90;;;;;;5030755;28;20049;-60
2022/04/29 06:21:22;;;;;;;2.30;1.40;;;7.30;99.90;;;;;;5029968;28;20654;-60
2022/04/29 06:23:49;;;;;;;2.03;1.20;;;7.30;99.90;;;;;;5037007;28;20055;-60
2022/04/29 06:26:16;;;;;;;2.00;1.45;;;7.40;99.90;;;;;;5035203;28;20155;-60
2022/04/29 06:28:42;;;;;;;1.50;1.10;;;7.50;99.90;;;;;;5026486;28;20132;-60
2022/04/29 06:31:10;;;;;;;1.77;1.25;;;7.50;99.90;;;;;;5037163;28;20044;-60
2022/04/29 06:33:38;;;;;;;2.65;1.60;;;7.60;99.90;;;;;;5038801;28;20092;-60
2022/04/29 06:36:06;;;;;;;1.48;1.27;;;7.70;99.90;;;;;;5036050;28;20081;-60
2022/04/29 06:38:32;;;;;;;2.25;1.40;;;7.70;99.90;;;;;;5038729;28;20133;-60
2022/04/29 06:41:00;;;;;;;1.75;1.17;;;7.80;99.90;;;;;;5018474;28;20049;-61
2022/04/29 06:43:28;;;;;;;2.83;1.63;;;7.90;99.90;;;;;;5011078;28;20325;-60
2022/04/29 06:45:54;;;;;;;2.42;1.27;;;7.90;99.90;;;;;;5039561;28;20139;-60
2022/04/29 06:48:21;;;;;;;2.42;1.75;;;8.00;99.90;;;;;;5038700;28;20080;-60
2022/04/29 06:50:48;;;;;;;2.63;1.60;;;8.10;99.90;;;;;;5038078;28;20106;-64
2022/04/29 06:53:15;;;;;;;1.95;1.33;;;8.10;99.90;;;;;;5038165;28;20124;-60
2022/04/29 06:55:41;;;;;;;2.40;1.90;;;8.20;99.90;;;;;;5038065;28;20428;-60
2022/04/29 06:58:08;;;;;;;3.00;1.85;;;8.30;99.90;;;;;;5036544;28;20051;-60
2022/04/29 07:00:36;;;;;;;2.08;1.50;;;8.30;99.90;;;;;;5034997;28;20088;-60
2022/04/29 07:03:03;;;;;;;2.25;1.60;;;8.40;99.90;;;;;;5029503;28;20080;-60
2022/04/29 07:05:31;;;;;;;1.40;1.27;;;8.40;99.90;;;;;;5030302;28;20037;-60
2022/04/29 07:07:58;;;;;;;1.63;1.15;;;8.60;99.90;;;;;;5036119;28;20067;-59
2022/04/29 07:10:25;;;;;;;1.65;1.30;;;8.60;99.90;;;;;;5017348;28;20143;-60
2022/04/29 07:12:52;;;;;;;1.88;1.00;;;8.60;99.90;;;;;;5027351;28;20406;-60
2022/04/29 07:15:19;;;;;;;1.63;1.27;;;8.70;99.90;;;;;;5027104;28;20049;-59
2022/04/29 07:17:46;;;;;;;1.50;1.10;;;8.80;99.90;;;;;;5037385;28;20139;-60
2022/04/29 07:20:13;;;;;;;1.55;1.15;;;8.90;99.90;;;;;;5041727;28;20081;-60
2022/04/29 07:22:41;;;;;;;2.33;1.48;;;9.00;99.90;;;;;;5041381;28;20091;-60
2022/04/29 07:25:09;;;;;;;1.88;1.15;;;9.10;99.90;;;;;;5023750;28;20048;-59
2022/04/29 07:27:36;;;;;;;1.73;1.10;;;9.20;99.90;;;;;;5041354;28;20148;-60
2022/04/29 07:30:04;;;;;;;0.93;0.80;;;9.30;99.90;;;;;;5039903;28;20052;-60
2022/04/29 07:32:31;;;;;;;1.15;0.95;;;9.40;99.90;;;;;;5038737;28;20318;-60
2022/04/29 07:43:14;;;;;;;1.77;1.10;;;9.70;99.90;;;;;;5040335;28;20638;-59
2022/04/29 07:45:42;;;;;;;2.13;1.20;;;9.80;99.90;;;;;;5039853;28;20049;-59
2022/04/29 07:48:09;;;;;;;1.63;1.05;;;9.90;99.90;;;;;;5041998;28;20110;-59
2022/04/29 07:50:36;;;;;;;2.40;1.15;;;10.00;99.90;;;;;;5040916;28;20049;-59
2022/04/29 07:53:03;;;;;;;4.18;0.90;;;10.10;99.90;;;;;;5039748;28;20053;-60
2022/04/29 07:55:29;;;;;;;1.38;0.82;;;10.20;99.90;;;;;;5038916;28;20563;-59
2022/04/29 07:57:57;;;;;;;1.27;1.00;;;10.20;99.90;;;;;;5025183;28;20124;-60
2022/04/29 08:00:24;;;;;;;1.00;0.80;;;10.20;99.90;;;;;;5038960;28;20148;-59
2022/04/29 08:02:51;;;;;;;1.77;1.00;;;10.30;99.90;;;;;;5040446;28;20040;-60
2022/04/29 08:05:18;;;;;;;1.35;0.90;;;10.30;99.90;;;;;;5039426;28;20056;-59
2022/04/29 08:07:47;;;;;;;2.22;2.03;;;10.30;99.90;;;;;;5040268;28;20542;-60
2022/04/29 08:10:14;;;;;;;1.92;0.90;;;10.40;99.90;;;;;;5039349;28;20077;-59
2022/04/29 08:12:41;;;;;;;1.58;0.70;;;10.40;99.90;;;;;;5023973;28;20534;-60
2022/04/29 08:15:09;;;;;;;1.33;1.00;;;10.40;99.90;;;;;;5041884;28;20499;-59
2022/04/29 08:17:38;;;;;;;1.10;0.80;;;10.50;99.90;;;;;;5041997;28;20044;-59
2022/04/29 08:20:06;;;;;;;1.83;1.00;;;10.50;99.90;;;;;;5041990;28;20095;-57
2022/04/29 08:22:33;;;;;;;0.80;0.80;;;10.60;99.90;;;;;;5042025;28;20147;-59
2022/04/29 08:25:00;;;;;;;0.93;0.70;;;10.70;99.90;;;;;;5042274;28;20145;-59
2022/04/29 08:27:28;;;;;;;2.40;1.00;;;10.90;99.90;;;;;;5042850;28;20132;-59
2022/04/29 08:29:57;;;;;;;1.95;1.10;;;11.00;99.90;;;;;;5042593;28;20240;-59
2022/04/29 08:32:24;;;;;;;1.67;1.08;;;11.20;99.90;;;;;;5040914;28;20291;-59
2022/04/29 08:34:51;;;;;;;1.20;1.00;;;11.40;99.90;;;;;;5042419;28;20492;-59
2022/04/29 08:37:18;;;;;;;2.03;1.02;;;11.60;99.90;;;;;;5041099;28;20098;-60
2022/04/29 08:39:45;;;;;;;1.80;1.25;;;11.90;99.90;;;;;;5041741;28;20118;-59
2022/04/29 08:42:13;;;;;;;1.58;0.90;;;12.00;99.90;;;;;;5041938;28;20059;-59
2022/04/29 08:44:40;;;;;;;2.42;1.20;;;12.20;99.90;;;;;;5041980;28;20088;-59
2022/04/29 08:47:08;;;;;;;1.02;0.90;;;12.20;99.90;;;;;;5040710;28;20052;-59
2022/04/29 08:49:35;;;;;;;1.30;0.90;;;12.30;99.90;;;;;;5041872;28;20048;-60
2022/04/29 08:52:08;;;;;;;1.50;0.82;;;12.40;99.90;;;;;;5042629;28;20094;-59
2022/04/29 09:00:23;;;;;;;1.42;1.08;;;12.70;99.90;;;;;;5047105;28;20056;-60
2022/04/29 09:02:52;;;;;;;1.42;0.90;;;12.80;99.90;;;;;;5026919;28;20091;-59
2022/04/29 09:05:19;;;;;;;2.80;1.20;;;12.70;99.90;;;;;;5044532;28;20364;-60
2022/04/29 09:08:02;;;;;;;1.20;1.10;;;12.60;99.70;;;;;;5046748;28;20128;-59
2022/04/29 09:10:35;;;;;;;1.80;1.15;;;12.50;99.50;;;;;;5047641;28;20558;-59
2022/04/29 09:13:16;;;;;;;1.85;1.30;;;12.50;99.90;;;;;;5030857;28;20144;-59
2022/04/29 09:15:54;;;;;;;1.77;1.05;;;12.40;99.90;;;;;;5047522;28;20077;-59
2022/04/29 09:18:29;;;;;;;2.13;1.10;;;12.40;99.90;;;;;;5047067;28;20057;-59
2022/04/29 09:20:56;;;;;;;2.05;1.30;;;12.30;99.90;;;;;;5029480;28;20106;-59
2022/04/29 09:23:27;;;;;;;1.77;1.13;;;12.30;99.90;;;;;;5045222;28;20559;-59
2022/04/29 09:26:01;;;;;;;1.83;1.20;;;12.20;99.80;;;;;;5044136;28;20132;-59
2022/04/29 09:28:28;;;;;;;1.80;1.20;;;12.10;98.80;;;;;;5044763;28;20440;-60
2022/04/29 09:30:56;;;;;;;2.05;1.40;;;12.20;99.10;;;;;;5046976;28;20563;-59
2022/04/29 09:33:24;;;;;;;1.10;0.90;;;12.30;99.20;;;;;;5029428;28;20098;-59
2022/04/29 09:35:51;;;;;;;2.13;1.10;;;12.40;99.10;;;;;;5047258;28;20132;-60
2022/04/29 09:41:03;;;;;;;1.67;1.17;;;12.30;98.80;;;;;;5047475;28;20076;-59
2022/04/29 09:43:50;;;;;;;1.13;0.75;;;12.30;99.10;;;;;;5047518;28;20503;-60
2022/04/29 09:46:22;;;;;;;2.67;1.02;;;12.50;98.50;;;;;;5046578;28;20048;-60
2022/04/29 09:49:06;;;;;;;0.85;0.80;;;12.40;97.50;;;;;;5046334;28;20044;-59
2022/04/29 09:51:41;;;;;;;1.15;0.80;;;12.50;97.50;;;;;;5046467;28;20503;-59
2022/04/29 09:54:18;;;;;;;1.20;0.95;;;12.10;97.10;;;;;;5046611;28;20135;-60
2022/04/29 09:56:45;;;;;;;1.67;0.90;;;11.90;97.80;;;;;;5047117;28;20148;-60
2022/04/29 09:59:12;;;;;;;1.63;0.90;;;11.90;97.70;;;;;;5047288;28;20128;-59
2022/04/29 10:01:41;;;;;;;1.27;0.80;;;11.90;97.90;;;;;;5043382;28;20057;-60
2022/04/29 10:04:08;;;;;;;1.40;0.80;;;12.00;98.30;;;;;;5040575;28;20103;-60
2022/04/29 10:06:37;;;;;;;3.00;1.10;;;12.10;97.40;;;;;;5046012;28;20103;-59
2022/04/29 10:09:04;;;;;;;0.98;0.70;;;12.00;96.70;;;;;;5010059;28;20691;-60
2022/04/29 10:11:32;;;;;;;1.13;0.77;;;12.10;96.90;;;;;;5021949;28;20127;-60
2022/04/29 10:14:01;;;;;;;1.23;0.70;;;12.20;97.00;;;;;;5020104;28;20045;-59
2022/04/29 10:16:30;;;;;;;2.95;1.10;;;12.30;96.90;;;;;;5036706;28;20052;-59
2022/04/29 10:21:48;;;;;;;1.50;1.20;;;12.20;97.00;;;;;;5042339;28;20083;-59
2022/04/29 10:24:15;;;;;;;3.28;1.10;;;12.20;97.40;;;;;;5025938;28;20440;-59
2022/04/29 10:26:41;;;;;;;1.98;1.10;;;12.10;97.20;;;;;;5039824;28;20041;-59
2022/04/29 10:29:08;;;;;;;2.60;1.58;;;12.00;96.90;;;;;;5038838;28;20127;-59
2022/04/29 10:31:35;;;;;;;1.92;1.33;;;12.10;97.80;;;;;;5028125;28;20132;-57
2022/04/29 10:34:25;;;;;;;2.05;1.20;;;12.20;97.70;;;;;;5027755;28;20449;-60
2022/04/29 10:36:52;;;;;;;2.42;1.15;;;12.10;97.50;;;;;;5027238;28;20053;-60
2022/04/29 10:39:19;;;;;;;2.65;1.65;;;12.10;97.80;;;;;;5043899;28;20112;-59
2022/04/29 10:41:59;;;;;;;1.63;1.15;;;12.10;98.00;;;;;;5010975;28;20253;-59
2022/04/29 10:44:25;;;;;;;1.52;1.30;;;12.20;96.70;;;;;;5025107;28;20160;-59
2022/04/29 10:46:54;;;;;;;2.90;1.20;;;12.20;97.20;;;;;;5026915;28;20333;-60
2022/04/29 10:49:25;;;;;;;1.40;1.10;;;12.40;97.50;;;;;;5027991;28;20102;-59
2022/04/29 10:51:53;;;;;;;2.88;1.38;;;12.30;97.30;;;;;;5016382;28;20768;-60
2022/04/29 10:54:35;;;;;;;1.15;0.90;;;12.30;96.80;;;;;;5037826;28;20646;-59
2022/04/29 10:57:06;;;;;;;2.00;1.17;;;12.40;96.90;;;;;;5040146;28;20175;-59
2022/04/29 10:59:53;;;;;;;1.75;1.00;;;12.30;96.60;;;;;;5036921;28;20056;-59
2022/04/29 11:02:30;;;;;;;2.70;1.52;;;12.20;96.70;;;;;;5032775;28;20136;-59
2022/04/29 11:04:57;;;;;;;1.42;1.00;;;12.10;96.90;;;;;;5022933;28;20087;-59
2022/04/29 11:07:42;;;;;;;2.10;1.30;;;12.10;96.80;;;;;;5037528;28;20055;-59
2022/04/29 11:10:17;;;;;;;2.05;1.30;;;12.10;96.20;;;;;;5025449;28;20137;-60
2022/04/29 11:13:03;;;;;;;2.22;1.00;;;12.20;96.80;;;;;;5019706;28;20132;-59
2022/04/29 11:15:41;;;;;;;2.47;1.17;;;12.50;96.50;;;;;;5022720;28;20057;-59
2022/04/29 11:18:23;;;;;;;2.58;1.30;;;12.80;95.40;;;;;;5034684;28;20045;-59
2022/04/29 11:20:56;;;;;;;1.93;1.17;;;12.90;95.00;;;;;;5029262;28;20247;-59
2022/04/29 11:26:11;;;;;;;1.58;0.98;;;13.50;94.70;;;;;;5019656;28;20451;-59
2022/04/29 11:28:38;;;;;;;1.38;1.02;;;14.00;94.60;;;;;;5030231;28;20146;-59
2022/04/29 11:31:09;;;;;;;1.25;0.85;;;14.20;93.60;;;;;;5018493;28;20053;-60
2022/04/29 11:33:37;;;;;;;1.73;0.90;;;14.30;92.40;;;;;;5029503;28;20128;-60
2022/04/29 11:36:09;;;;;;;1.92;1.00;;;14.30;93.10;;;;;;5037553;28;20048;-60
2022/04/29 11:38:46;;;;;;;1.27;0.95;;;14.20;92.20;;;;;;5036294;28;20084;-60
2022/04/29 11:41:29;;;;;;;1.00;0.90;;;14.10;93.00;;;;;;5035269;28;20136;-59
2022/04/29 11:43:56;;;;;;;;;;;14.20;92.90;;;;;;5033932;28;20045;-60
2022/04/29 11:46:23;;;;;;;0.73;0.55;;;14.40;92.00;;;;;;5039034;28;20330;-59
2022/04/29 11:48:54;;;;;;;1.17;0.88;;;14.50;91.70;;;;;;5022026;28;20377;-59
2022/04/29 11:51:21;;;;;;;1.70;0.98;;;14.40;92.10;;;;;;5041500;28;20131;-59
2022/04/29 11:53:52;;;;;;;1.90;0.98;;;14.30;92.30;;;;;;5043022;28;20124;-59
2022/04/29 11:56:19;;;;;;;2.10;1.02;;;14.30;92.10;;;;;;5036890;28;20136;-59
2022/04/29 11:58:45;;;;;;;1.52;0.98;;;14.40;92.40;;;;;;5039386;28;20051;-60
2022/04/29 12:01:15;;;;;;;1.30;1.20;;;14.30;92.40;;;;;;5041942;28;20531;-60
2022/04/29 12:03:48;;;;;;;1.85;0.88;;;14.30;92.70;;;;;;5038893;28;20168;-60
2022/04/29 12:06:16;;;;;;;1.27;1.10;;;14.20;92.00;;;;;;5039200;28;20164;-60
2022/04/29 12:08:44;;;;;;;2.45;1.10;;;14.10;92.30;;;;;;5039915;28;20132;-60
2022/04/29 12:11:11;;;;;;;1.55;1.13;;;14.10;92.40;;;;;;5010603;28;20110;-59
2022/04/29 12:13:37;;;;;;;4.10;1.70;;;14.10;92.10;;;;;;5041398;28;20136;-59
2022/04/29 12:16:05;;;;;;;1.70;1.23;;;13.90;93.30;;;;;;5042360;28;20081;-60
2022/04/29 12:18:45;;;;;;;2.80;1.40;;;13.90;93.20;;;;;;5040302;28;20048;-60
2022/04/29 12:21:12;;;;;;;2.10;1.27;;;13.80;93.30;;;;;;5007809;28;20084;-60
2022/04/29 12:23:39;;;;;;;2.00;1.48;;;13.60;93.30;;;;;;5039338;28;20480;-59
2022/04/29 12:26:07;;;;;;;2.65;1.45;;;13.80;93.70;;;;;;5004953;28;20156;-59
2022/04/29 12:28:37;;;;;;;2.45;1.58;;;13.60;93.70;;;;;;5038599;28;20052;-59
2022/04/29 12:37:10;;;;;;;1.80;1.30;;;13.70;93.70;;;;;;5021683;28;20056;-59
2022/04/29 12:39:42;;;;;;;1.80;1.30;;;13.90;93.10;;;;;;5010418;28;20292;-59
2022/04/29 12:42:17;;;;;;;1.92;1.17;;;14.00;93.90;;;;;;5031339;28;20045;-60
2022/04/29 12:47:43;;;;;;;1.38;1.00;;;14.10;93.60;;;;;;5031313;28;20111;-60
2022/04/29 12:50:28;;;;;;;2.50;1.60;;;14.10;93.70;;;;;;5032770;28;20076;-59
2022/04/29 12:52:54;;;;;;;1.42;1.20;;;14.10;93.60;;;;;;5037798;28;20056;-59
2022/04/29 12:55:21;;;;;;;2.22;1.20;;;14.10;93.60;;;;;;5022311;28;20556;-58
2022/04/29 12:57:48;;;;;;;2.10;1.50;;;14.10;93.00;;;;;;5029563;28;20055;-59
2022/04/29 13:00:23;;;;;;;1.85;1.30;;;14.10;93.50;;;;;;5040979;28;20828;-60
2022/04/29 13:03:00;;;;;;;2.25;1.20;;;14.20;93.40;;;;;;5023686;28;20057;-60
2022/04/29 13:05:28;;;;;;;1.65;1.10;;;14.40;93.70;;;;;;5041203;28;20164;-59
2022/04/29 13:07:55;;;;;;;1.70;1.23;;;14.40;92.90;;;;;;5041295;28;20057;-59
2022/04/29 13:10:22;;;;;;;1.60;1.27;;;14.20;93.40;;;;;;4995521;28;20516;-60
2022/04/29 13:12:49;;;;;;;2.40;1.70;;;14.10;93.40;;;;;;5041321;28;20084;-59
2022/04/29 13:15:16;;;;;;;2.28;1.20;;;13.80;93.20;;;;;;5041144;28;20092;-59
2022/04/29 13:17:43;;;;;;;1.17;1.08;;;13.60;93.80;;;;;;5040259;28;20057;-59
2022/04/29 13:20:10;;;;;;;1.67;1.13;;;13.60;94.30;;;;;;5037229;28;20045;-60
2022/04/29 13:22:38;;;;;;;1.48;1.10;;;13.70;94.00;;;;;;5039235;28;20144;-59
2022/04/29 13:25:08;;;;;;;2.00;1.10;;;13.80;94.00;;;;;;5039402;28;20095;-59
2022/04/29 13:27:35;;;;;;;1.25;1.10;;;13.90;94.20;;;;;;5020728;28;20143;-59
2022/04/29 13:30:05;;;;;;;2.28;1.65;;;13.70;93.50;;;;;;5040863;28;20124;-58
2022/04/29 13:32:35;;;;;;;1.65;1.40;;;13.40;94.10;;;;;;5037165;28;20059;-59
2022/04/29 13:35:02;;;;;;;1.70;1.38;;;13.40;94.90;;;;;;5038819;28;20189;-59
2022/04/29 13:37:32;;;;;;;1.35;1.10;;;13.40;94.50;;;;;;5041091;28;20164;-58
2022/04/29 13:40:00;;;;;;;2.30;1.70;;;13.50;94.40;;;;;;5013138;28;20132;-59
2022/04/29 13:42:29;;;;;;;3.00;1.92;;;13.20;93.70;;;;;;5037048;28;20495;-59